sensor_id;sensor_type;location;lat;lon;timestamp;P1;durP1;ratioP1;P2;durP2;ratioP2
31594;SDS011;18200;48.726;8.892;2024-01-15T00:03:00;38.88;;;13.55;;
31594;SDS011;18200;48.726;8.892;2024-01-15T00:07:00;36.72;;;13.07;;
31594;SDS011;18200;48.726;8.892;2024-01-15T00:11:00;45.55;;;14.32;;
31594;SDS011;18200;48.726;8.892;2024-01-15T00:15:01;39.05;;;14.80;;
31594;SDS011;18200;48.726;8.892;2024-01-15T00:19:01;42.92;;;16.92;;
31594;SDS011;18200;48.726;8.892;2024-01-15T00:23:02;37.55;;;12.93;;
31594;SDS011;18200;48.726;8.892;2024-01-15T00:27:02;33.10;;;11.90;;
31594;SDS011;18200;48.726;8.892;2024-01-15T00:31:04;42.00;;;13.93;;
31594;SDS011;18200;48.726;8.892;2024-01-15T00:35:05;37.60;;;12.85;;
31594;SDS011;18200;48.726;8.892;2024-01-15T00:39:05;39.78;;;13.70;;
31594;SDS011;18200;48.726;8.892;2024-01-15T00:43:06;42.63;;;14.63;;
31594;SDS011;18200;48.726;8.892;2024-01-15T00:47:07;38.75;;;12.30;;
31594;SDS011;18200;48.726;8.892;2024-01-15T00:51:08;40.13;;;12.73;;
31594;SDS011;18200;48.726;8.892;2024-01-15T00:55:08;37.60;;;13.45;;
31594;SDS011;18200;48.726;8.892;2024-01-15T00:59:08;35.17;;;12.40;;
31594;SDS011;18200;48.726;8.892;2024-01-15T01:03:10;31.70;;;11.70;;
31594;SDS011;18200;48.726;8.892;2024-01-15T01:07:10;40.90;;;13.85;;
31594;SDS011;18200;48.726;8.892;2024-01-15T01:11:14;37.38;;;12.98;;
31594;SDS011;18200;48.726;8.892;2024-01-15T01:15:15;37.47;;;12.55;;
31594;SDS011;18200;48.726;8.892;2024-01-15T01:19:16;36.22;;;13.70;;
31594;SDS011;18200;48.726;8.892;2024-01-15T01:23:16;36.88;;;11.85;;
31594;SDS011;18200;48.726;8.892;2024-01-15T01:27:17;36.58;;;12.68;;
31594;SDS011;18200;48.726;8.892;2024-01-15T01:31:17;38.72;;;12.32;;
31594;SDS011;18200;48.726;8.892;2024-01-15T01:35:18;34.90;;;11.90;;
31594;SDS011;18200;48.726;8.892;2024-01-15T01:39:18;38.55;;;13.45;;
31594;SDS011;18200;48.726;8.892;2024-01-15T01:43:18;32.53;;;11.85;;
31594;SDS011;18200;48.726;8.892;2024-01-15T01:47:19;36.88;;;12.80;;
31594;SDS011;18200;48.726;8.892;2024-01-15T01:51:20;39.60;;;14.85;;
31594;SDS011;18200;48.726;8.892;2024-01-15T01:55:21;31.40;;;12.23;;
31594;SDS011;18200;48.726;8.892;2024-01-15T01:59:26;32.83;;;12.25;;
31594;SDS011;18200;48.726;8.892;2024-01-15T02:03:27;35.92;;;13.18;;
31594;SDS011;18200;48.726;8.892;2024-01-15T02:07:28;38.40;;;15.77;;
31594;SDS011;18200;48.726;8.892;2024-01-15T02:11:28;58.10;;;23.92;;
31594;SDS011;18200;48.726;8.892;2024-01-15T02:15:29;37.75;;;13.07;;
31594;SDS011;18200;48.726;8.892;2024-01-15T02:19:29;36.78;;;12.20;;
31594;SDS011;18200;48.726;8.892;2024-01-15T02:23:30;33.17;;;12.32;;
31594;SDS011;18200;48.726;8.892;2024-01-15T02:27:30;35.42;;;11.80;;
31594;SDS011;18200;48.726;8.892;2024-01-15T02:31:31;36.75;;;12.75;;
31594;SDS011;18200;48.726;8.892;2024-01-15T02:35:31;30.60;;;11.25;;
31594;SDS011;18200;48.726;8.892;2024-01-15T02:39:33;33.83;;;11.10;;
31594;SDS011;18200;48.726;8.892;2024-01-15T02:43:33;37.67;;;12.18;;
31594;SDS011;18200;48.726;8.892;2024-01-15T02:47:33;30.92;;;11.18;;
31594;SDS011;18200;48.726;8.892;2024-01-15T02:51:34;28.00;;;10.32;;
31594;SDS011;18200;48.726;8.892;2024-01-15T02:55:34;37.55;;;12.07;;
31594;SDS011;18200;48.726;8.892;2024-01-15T02:59:35;34.80;;;11.82;;
31594;SDS011;18200;48.726;8.892;2024-01-15T03:03:35;36.30;;;11.32;;
31594;SDS011;18200;48.726;8.892;2024-01-15T03:07:36;38.45;;;12.00;;
31594;SDS011;18200;48.726;8.892;2024-01-15T03:11:37;35.15;;;12.93;;
31594;SDS011;18200;48.726;8.892;2024-01-15T03:15:39;36.58;;;12.73;;
31594;SDS011;18200;48.726;8.892;2024-01-15T03:19:39;34.92;;;12.60;;
31594;SDS011;18200;48.726;8.892;2024-01-15T03:23:40;35.95;;;12.77;;
31594;SDS011;18200;48.726;8.892;2024-01-15T03:27:40;32.95;;;11.27;;
31594;SDS011;18200;48.726;8.892;2024-01-15T03:31:40;33.13;;;11.27;;
31594;SDS011;18200;48.726;8.892;2024-01-15T03:35:41;35.90;;;12.05;;
31594;SDS011;18200;48.726;8.892;2024-01-15T03:39:41;27.48;;;10.20;;
31594;SDS011;18200;48.726;8.892;2024-01-15T03:43:41;30.25;;;11.50;;
31594;SDS011;18200;48.726;8.892;2024-01-15T03:47:42;33.45;;;11.00;;
31594;SDS011;18200;48.726;8.892;2024-01-15T03:51:42;32.78;;;11.65;;
31594;SDS011;18200;48.726;8.892;2024-01-15T03:55:43;36.20;;;12.15;;
31594;SDS011;18200;48.726;8.892;2024-01-15T03:59:44;31.00;;;11.07;;
31594;SDS011;18200;48.726;8.892;2024-01-15T04:03:47;34.40;;;12.15;;
31594;SDS011;18200;48.726;8.892;2024-01-15T04:07:47;32.10;;;10.55;;
31594;SDS011;18200;48.726;8.892;2024-01-15T04:11:48;30.80;;;11.13;;
31594;SDS011;18200;48.726;8.892;2024-01-15T04:15:48;34.28;;;12.50;;
31594;SDS011;18200;48.726;8.892;2024-01-15T04:19:49;31.48;;;12.02;;
31594;SDS011;18200;48.726;8.892;2024-01-15T04:23:49;38.65;;;14.13;;
31594;SDS011;18200;48.726;8.892;2024-01-15T04:27:49;35.33;;;13.40;;
31594;SDS011;18200;48.726;8.892;2024-01-15T04:31:50;38.35;;;12.00;;
31594;SDS011;18200;48.726;8.892;2024-01-15T04:35:51;36.38;;;11.55;;
31594;SDS011;18200;48.726;8.892;2024-01-15T04:39:52;33.40;;;11.35;;
31594;SDS011;18200;48.726;8.892;2024-01-15T04:43:54;37.90;;;12.73;;
31594;SDS011;18200;48.726;8.892;2024-01-15T04:47:55;36.92;;;12.40;;
31594;SDS011;18200;48.726;8.892;2024-01-15T04:51:58;37.53;;;12.55;;
31594;SDS011;18200;48.726;8.892;2024-01-15T04:55:58;35.67;;;12.45;;
31594;SDS011;18200;48.726;8.892;2024-01-15T04:59:59;38.78;;;15.93;;
31594;SDS011;18200;48.726;8.892;2024-01-15T05:03:59;40.65;;;13.05;;
31594;SDS011;18200;48.726;8.892;2024-01-15T05:08:00;36.15;;;12.23;;
31594;SDS011;18200;48.726;8.892;2024-01-15T05:12:00;35.78;;;13.93;;
31594;SDS011;18200;48.726;8.892;2024-01-15T05:16:00;33.20;;;12.40;;
31594;SDS011;18200;48.726;8.892;2024-01-15T05:20:01;33.72;;;12.93;;
31594;SDS011;18200;48.726;8.892;2024-01-15T05:24:01;34.40;;;12.43;;
31594;SDS011;18200;48.726;8.892;2024-01-15T05:28:02;36.47;;;13.32;;
31594;SDS011;18200;48.726;8.892;2024-01-15T05:32:02;36.00;;;13.63;;
31594;SDS011;18200;48.726;8.892;2024-01-15T05:36:03;35.08;;;12.88;;
31594;SDS011;18200;48.726;8.892;2024-01-15T05:40:03;34.28;;;12.60;;
31594;SDS011;18200;48.726;8.892;2024-01-15T05:44:04;38.45;;;13.23;;
31594;SDS011;18200;48.726;8.892;2024-01-15T05:48:05;38.40;;;14.15;;
31594;SDS011;18200;48.726;8.892;2024-01-15T05:52:05;39.90;;;13.82;;
31594;SDS011;18200;48.726;8.892;2024-01-15T05:56:06;34.13;;;12.93;;
31594;SDS011;18200;48.726;8.892;2024-01-15T06:00:06;31.67;;;10.82;;
31594;SDS011;18200;48.726;8.892;2024-01-15T06:04:08;33.30;;;12.52;;
31594;SDS011;18200;48.726;8.892;2024-01-15T06:08:09;28.50;;;10.30;;
31594;SDS011;18200;48.726;8.892;2024-01-15T06:12:09;28.70;;;11.75;;
31594;SDS011;18200;48.726;8.892;2024-01-15T06:16:13;24.90;;;9.57;;
31594;SDS011;18200;48.726;8.892;2024-01-15T06:20:20;26.02;;;9.93;;
31594;SDS011;18200;48.726;8.892;2024-01-15T06:24:20;25.95;;;10.55;;
31594;SDS011;18200;48.726;8.892;2024-01-15T06:28:20;23.15;;;9.57;;
31594;SDS011;18200;48.726;8.892;2024-01-15T06:32:21;26.83;;;10.98;;
31594;SDS011;18200;48.726;8.892;2024-01-15T06:36:21;28.58;;;10.20;;
31594;SDS011;18200;48.726;8.892;2024-01-15T06:40:22;25.85;;;10.75;;
31594;SDS011;18200;48.726;8.892;2024-01-15T06:44:22;24.77;;;9.82;;
31594;SDS011;18200;48.726;8.892;2024-01-15T06:48:22;28.05;;;10.85;;
31594;SDS011;18200;48.726;8.892;2024-01-15T06:52:23;31.00;;;11.10;;
31594;SDS011;18200;48.726;8.892;2024-01-15T06:56:23;33.55;;;11.95;;
31594;SDS011;18200;48.726;8.892;2024-01-15T07:00:24;23.85;;;10.68;;
31594;SDS011;18200;48.726;8.892;2024-01-15T07:04:24;27.30;;;13.10;;
31594;SDS011;18200;48.726;8.892;2024-01-15T07:08:25;25.75;;;10.50;;
31594;SDS011;18200;48.726;8.892;2024-01-15T07:12:25;23.88;;;8.80;;
31594;SDS011;18200;48.726;8.892;2024-01-15T07:16:25;22.05;;;9.13;;
31594;SDS011;18200;48.726;8.892;2024-01-15T07:20:26;23.92;;;8.80;;
31594;SDS011;18200;48.726;8.892;2024-01-15T07:24:27;19.17;;;8.50;;
31594;SDS011;18200;48.726;8.892;2024-01-15T07:28:30;24.98;;;9.43;;
31594;SDS011;18200;48.726;8.892;2024-01-15T07:32:30;20.47;;;8.63;;
31594;SDS011;18200;48.726;8.892;2024-01-15T07:36:31;17.55;;;7.82;;
31594;SDS011;18200;48.726;8.892;2024-01-15T07:40:32;26.88;;;10.00;;
31594;SDS011;18200;48.726;8.892;2024-01-15T07:44:32;16.13;;;7.32;;
31594;SDS011;18200;48.726;8.892;2024-01-15T07:48:33;25.58;;;12.10;;
31594;SDS011;18200;48.726;8.892;2024-01-15T07:52:34;23.80;;;10.20;;
31594;SDS011;18200;48.726;8.892;2024-01-15T07:56:35;21.88;;;7.93;;
31594;SDS011;18200;48.726;8.892;2024-01-15T08:00:53;30.75;;;14.82;;
31594;SDS011;18200;48.726;8.892;2024-01-15T08:04:53;22.63;;;8.77;;
31594;SDS011;18200;48.726;8.892;2024-01-15T08:08:54;18.90;;;7.70;;
31594;SDS011;18200;48.726;8.892;2024-01-15T08:12:54;25.55;;;9.45;;
31594;SDS011;18200;48.726;8.892;2024-01-15T08:16:55;20.75;;;7.22;;
31594;SDS011;18200;48.726;8.892;2024-01-15T08:20:55;21.70;;;7.47;;
31594;SDS011;18200;48.726;8.892;2024-01-15T08:24:57;20.13;;;7.75;;
31594;SDS011;18200;48.726;8.892;2024-01-15T08:28:58;20.70;;;7.85;;
31594;SDS011;18200;48.726;8.892;2024-01-15T08:32:58;18.88;;;7.35;;
31594;SDS011;18200;48.726;8.892;2024-01-15T08:36:59;21.45;;;7.43;;
31594;SDS011;18200;48.726;8.892;2024-01-15T08:40:59;19.85;;;7.43;;
31594;SDS011;18200;48.726;8.892;2024-01-15T08:45:00;20.65;;;7.70;;
31594;SDS011;18200;48.726;8.892;2024-01-15T08:49:01;18.35;;;7.60;;
31594;SDS011;18200;48.726;8.892;2024-01-15T08:53:03;22.15;;;8.32;;
31594;SDS011;18200;48.726;8.892;2024-01-15T08:57:04;23.00;;;8.32;;
31594;SDS011;18200;48.726;8.892;2024-01-15T09:01:04;21.63;;;8.35;;
31594;SDS011;18200;48.726;8.892;2024-01-15T09:05:05;18.00;;;6.40;;
31594;SDS011;18200;48.726;8.892;2024-01-15T09:09:06;16.95;;;7.07;;
31594;SDS011;18200;48.726;8.892;2024-01-15T09:13:06;15.60;;;6.15;;
31594;SDS011;18200;48.726;8.892;2024-01-15T09:17:07;18.52;;;7.82;;
31594;SDS011;18200;48.726;8.892;2024-01-15T09:21:07;18.20;;;6.40;;
31594;SDS011;18200;48.726;8.892;2024-01-15T09:25:08;14.52;;;5.72;;
31594;SDS011;18200;48.726;8.892;2024-01-15T09:29:12;14.40;;;6.00;;
31594;SDS011;18200;48.726;8.892;2024-01-15T09:33:13;16.52;;;6.93;;
31594;SDS011;18200;48.726;8.892;2024-01-15T09:37:14;18.65;;;6.82;;
31594;SDS011;18200;48.726;8.892;2024-01-15T09:41:15;20.27;;;8.18;;
31594;SDS011;18200;48.726;8.892;2024-01-15T09:45:15;15.43;;;6.45;;
31594;SDS011;18200;48.726;8.892;2024-01-15T09:49:16;17.33;;;6.28;;
31594;SDS011;18200;48.726;8.892;2024-01-15T09:53:17;19.42;;;6.85;;
31594;SDS011;18200;48.726;8.892;2024-01-15T09:57:18;16.85;;;6.45;;
31594;SDS011;18200;48.726;8.892;2024-01-15T10:01:20;13.80;;;5.28;;
31594;SDS011;18200;48.726;8.892;2024-01-15T10:05:21;14.30;;;6.13;;
31594;SDS011;18200;48.726;8.892;2024-01-15T10:09:21;11.85;;;5.95;;
31594;SDS011;18200;48.726;8.892;2024-01-15T10:13:22;13.60;;;5.47;;
31594;SDS011;18200;48.726;8.892;2024-01-15T10:17:23;15.27;;;5.60;;
31594;SDS011;18200;48.726;8.892;2024-01-15T10:21:24;16.10;;;5.55;;
31594;SDS011;18200;48.726;8.892;2024-01-15T10:25:26;19.35;;;8.23;;
31594;SDS011;18200;48.726;8.892;2024-01-15T10:29:26;20.70;;;7.88;;
31594;SDS011;18200;48.726;8.892;2024-01-15T10:33:27;13.48;;;6.18;;
31594;SDS011;18200;48.726;8.892;2024-01-15T10:37:27;16.00;;;5.85;;
31594;SDS011;18200;48.726;8.892;2024-01-15T10:41:28;13.60;;;5.72;;
31594;SDS011;18200;48.726;8.892;2024-01-15T10:45:29;17.02;;;6.30;;
31594;SDS011;18200;48.726;8.892;2024-01-15T10:49:29;16.40;;;6.78;;
31594;SDS011;18200;48.726;8.892;2024-01-15T10:53:30;15.23;;;6.45;;
31594;SDS011;18200;48.726;8.892;2024-01-15T10:57:32;14.02;;;6.38;;
31594;SDS011;18200;48.726;8.892;2024-01-15T11:01:33;13.48;;;5.47;;
31594;SDS011;18200;48.726;8.892;2024-01-15T11:05:38;14.80;;;6.57;;
31594;SDS011;18200;48.726;8.892;2024-01-15T11:09:41;15.65;;;6.38;;
31594;SDS011;18200;48.726;8.892;2024-01-15T11:13:41;15.57;;;6.45;;
31594;SDS011;18200;48.726;8.892;2024-01-15T11:18:00;15.68;;;7.18;;
31594;SDS011;18200;48.726;8.892;2024-01-15T11:22:03;13.68;;;6.53;;
31594;SDS011;18200;48.726;8.892;2024-01-15T11:26:20;17.60;;;7.10;;
31594;SDS011;18200;48.726;8.892;2024-01-15T11:30:41;17.50;;;9.57;;
31594;SDS011;18200;48.726;8.892;2024-01-15T11:38:52;18.50;;;7.65;;
31594;SDS011;18200;48.726;8.892;2024-01-15T11:42:53;18.63;;;7.15;;
31594;SDS011;18200;48.726;8.892;2024-01-15T11:47:00;27.73;;;10.35;;
31594;SDS011;18200;48.726;8.892;2024-01-15T11:51:02;17.10;;;7.07;;
31594;SDS011;18200;48.726;8.892;2024-01-15T11:59:22;18.15;;;7.57;;
31594;SDS011;18200;48.726;8.892;2024-01-15T12:03:22;17.67;;;7.07;;
31594;SDS011;18200;48.726;8.892;2024-01-15T12:07:24;18.80;;;7.57;;
31594;SDS011;18200;48.726;8.892;2024-01-15T12:11:24;17.65;;;7.53;;
31594;SDS011;18200;48.726;8.892;2024-01-15T12:15:28;19.98;;;8.70;;
31594;SDS011;18200;48.726;8.892;2024-01-15T12:19:29;17.52;;;7.70;;
31594;SDS011;18200;48.726;8.892;2024-01-15T12:23:31;17.10;;;6.85;;
31594;SDS011;18200;48.726;8.892;2024-01-15T12:27:31;15.32;;;6.93;;
31594;SDS011;18200;48.726;8.892;2024-01-15T12:31:32;21.23;;;9.80;;
31594;SDS011;18200;48.726;8.892;2024-01-15T12:35:35;22.60;;;8.70;;
31594;SDS011;18200;48.726;8.892;2024-01-15T12:39:36;14.93;;;7.18;;
31594;SDS011;18200;48.726;8.892;2024-01-15T12:43:37;15.90;;;6.57;;
31594;SDS011;18200;48.726;8.892;2024-01-15T12:47:37;13.27;;;6.15;;
31594;SDS011;18200;48.726;8.892;2024-01-15T12:51:38;17.55;;;8.38;;
31594;SDS011;18200;48.726;8.892;2024-01-15T12:55:38;15.88;;;7.82;;
31594;SDS011;18200;48.726;8.892;2024-01-15T12:59:39;15.77;;;9.93;;
31594;SDS011;18200;48.726;8.892;2024-01-15T13:03:39;14.57;;;6.40;;
31594;SDS011;18200;48.726;8.892;2024-01-15T13:07:40;13.98;;;5.78;;
31594;SDS011;18200;48.726;8.892;2024-01-15T13:11:40;14.52;;;6.20;;
31594;SDS011;18200;48.726;8.892;2024-01-15T13:15:40;11.95;;;6.20;;
31594;SDS011;18200;48.726;8.892;2024-01-15T13:19:41;17.10;;;7.05;;
31594;SDS011;18200;48.726;8.892;2024-01-15T13:23:41;15.05;;;6.53;;
31594;SDS011;18200;48.726;8.892;2024-01-15T13:27:41;13.00;;;6.00;;
31594;SDS011;18200;48.726;8.892;2024-01-15T13:31:42;17.52;;;6.72;;
31594;SDS011;18200;48.726;8.892;2024-01-15T13:35:42;12.70;;;6.53;;
31594;SDS011;18200;48.726;8.892;2024-01-15T13:39:43;18.60;;;8.85;;
31594;SDS011;18200;48.726;8.892;2024-01-15T13:43:43;14.10;;;7.03;;
31594;SDS011;18200;48.726;8.892;2024-01-15T13:47:43;12.48;;;5.70;;
31594;SDS011;18200;48.726;8.892;2024-01-15T13:51:44;11.80;;;5.25;;
31594;SDS011;18200;48.726;8.892;2024-01-15T13:55:44;12.63;;;6.10;;
31594;SDS011;18200;48.726;8.892;2024-01-15T13:59:45;15.43;;;7.78;;
31594;SDS011;18200;48.726;8.892;2024-01-15T14:03:45;13.02;;;5.55;;
31594;SDS011;18200;48.726;8.892;2024-01-15T14:07:46;15.07;;;6.47;;
31594;SDS011;18200;48.726;8.892;2024-01-15T14:11:47;14.93;;;9.45;;
31594;SDS011;18200;48.726;8.892;2024-01-15T14:15:48;10.13;;;5.88;;
31594;SDS011;18200;48.726;8.892;2024-01-15T14:19:50;10.07;;;4.75;;
31594;SDS011;18200;48.726;8.892;2024-01-15T14:23:50;8.20;;;4.22;;
31594;SDS011;18200;48.726;8.892;2024-01-15T14:27:50;4.97;;;2.85;;
31594;SDS011;18200;48.726;8.892;2024-01-15T14:31:51;4.43;;;2.88;;
31594;SDS011;18200;48.726;8.892;2024-01-15T14:35:52;9.18;;;4.75;;
31594;SDS011;18200;48.726;8.892;2024-01-15T14:39:52;5.22;;;2.75;;
31594;SDS011;18200;48.726;8.892;2024-01-15T14:43:53;6.43;;;3.67;;
31594;SDS011;18200;48.726;8.892;2024-01-15T14:47:53;9.00;;;4.75;;
31594;SDS011;18200;48.726;8.892;2024-01-15T14:51:54;8.15;;;4.00;;
31594;SDS011;18200;48.726;8.892;2024-01-15T14:55:54;8.88;;;4.53;;
31594;SDS011;18200;48.726;8.892;2024-01-15T14:59:54;11.63;;;4.93;;
31594;SDS011;18200;48.726;8.892;2024-01-15T15:03:55;9.48;;;4.57;;
31594;SDS011;18200;48.726;8.892;2024-01-15T15:07:55;10.90;;;5.07;;
31594;SDS011;18200;48.726;8.892;2024-01-15T15:11:56;10.20;;;5.55;;
31594;SDS011;18200;48.726;8.892;2024-01-15T15:15:56;11.20;;;5.88;;
31594;SDS011;18200;48.726;8.892;2024-01-15T15:19:56;12.38;;;6.03;;
31594;SDS011;18200;48.726;8.892;2024-01-15T15:23:57;13.18;;;5.60;;
31594;SDS011;18200;48.726;8.892;2024-01-15T15:27:57;12.77;;;6.75;;
31594;SDS011;18200;48.726;8.892;2024-01-15T15:31:57;13.07;;;5.88;;
31594;SDS011;18200;48.726;8.892;2024-01-15T15:35:58;14.95;;;7.20;;
31594;SDS011;18200;48.726;8.892;2024-01-15T15:39:59;11.98;;;6.45;;
31594;SDS011;18200;48.726;8.892;2024-01-15T15:44:00;15.25;;;7.43;;
31594;SDS011;18200;48.726;8.892;2024-01-15T15:48:00;15.82;;;7.38;;
31594;SDS011;18200;48.726;8.892;2024-01-15T15:52:00;11.80;;;6.03;;
31594;SDS011;18200;48.726;8.892;2024-01-15T15:56:01;14.18;;;6.32;;
31594;SDS011;18200;48.726;8.892;2024-01-15T16:00:01;12.82;;;5.43;;
31594;SDS011;18200;48.726;8.892;2024-01-15T16:04:12;12.88;;;6.72;;
31594;SDS011;18200;48.726;8.892;2024-01-15T16:09:17;12.32;;;6.63;;
31594;SDS011;18200;48.726;8.892;2024-01-15T16:14:47;11.30;;;5.68;;
31594;SDS011;18200;48.726;8.892;2024-01-15T16:18:47;11.80;;;5.65;;
31594;SDS011;18200;48.726;8.892;2024-01-15T16:22:48;11.77;;;6.57;;
31594;SDS011;18200;48.726;8.892;2024-01-15T16:26:49;13.25;;;6.70;;
31594;SDS011;18200;48.726;8.892;2024-01-15T16:30:49;13.93;;;7.38;;
31594;SDS011;18200;48.726;8.892;2024-01-15T16:34:50;13.00;;;6.68;;
31594;SDS011;18200;48.726;8.892;2024-01-15T16:38:51;17.88;;;7.90;;
31594;SDS011;18200;48.726;8.892;2024-01-15T16:42:52;16.92;;;8.45;;
31594;SDS011;18200;48.726;8.892;2024-01-15T16:46:53;12.43;;;6.60;;
31594;SDS011;18200;48.726;8.892;2024-01-15T16:50:53;17.48;;;7.35;;
31594;SDS011;18200;48.726;8.892;2024-01-15T16:54:54;15.45;;;7.50;;
31594;SDS011;18200;48.726;8.892;2024-01-15T16:58:56;17.45;;;7.25;;
31594;SDS011;18200;48.726;8.892;2024-01-15T17:02:56;18.67;;;9.63;;
31594;SDS011;18200;48.726;8.892;2024-01-15T17:06:57;16.20;;;7.75;;
31594;SDS011;18200;48.726;8.892;2024-01-15T17:10:58;15.10;;;8.07;;
31594;SDS011;18200;48.726;8.892;2024-01-15T17:14:58;19.20;;;7.57;;
31594;SDS011;18200;48.726;8.892;2024-01-15T17:18:59;17.08;;;7.28;;
31594;SDS011;18200;48.726;8.892;2024-01-15T17:22:59;17.75;;;7.07;;
31594;SDS011;18200;48.726;8.892;2024-01-15T17:27:00;15.93;;;7.03;;
31594;SDS011;18200;48.726;8.892;2024-01-15T17:31:00;14.40;;;7.68;;
31594;SDS011;18200;48.726;8.892;2024-01-15T17:35:01;20.75;;;10.68;;
31594;SDS011;18200;48.726;8.892;2024-01-15T17:39:01;16.67;;;8.13;;
31594;SDS011;18200;48.726;8.892;2024-01-15T17:43:02;18.08;;;8.48;;
31594;SDS011;18200;48.726;8.892;2024-01-15T17:47:02;24.23;;;9.23;;
31594;SDS011;18200;48.726;8.892;2024-01-15T17:51:03;18.83;;;9.32;;
31594;SDS011;18200;48.726;8.892;2024-01-15T17:55:04;57.92;;;16.17;;
31594;SDS011;18200;48.726;8.892;2024-01-15T17:59:05;21.65;;;8.98;;
31594;SDS011;18200;48.726;8.892;2024-01-15T18:03:06;17.38;;;7.63;;
31594;SDS011;18200;48.726;8.892;2024-01-15T18:07:07;16.15;;;7.00;;
31594;SDS011;18200;48.726;8.892;2024-01-15T18:11:12;17.02;;;7.47;;
31594;SDS011;18200;48.726;8.892;2024-01-15T18:15:15;16.58;;;7.40;;
31594;SDS011;18200;48.726;8.892;2024-01-15T18:19:16;14.40;;;6.38;;
31594;SDS011;18200;48.726;8.892;2024-01-15T18:23:17;13.15;;;5.65;;
31594;SDS011;18200;48.726;8.892;2024-01-15T18:27:17;13.80;;;6.15;;
31594;SDS011;18200;48.726;8.892;2024-01-15T18:31:18;17.42;;;7.00;;
31594;SDS011;18200;48.726;8.892;2024-01-15T18:35:19;13.13;;;5.85;;
31594;SDS011;18200;48.726;8.892;2024-01-15T18:39:21;15.18;;;8.10;;
31594;SDS011;18200;48.726;8.892;2024-01-15T18:43:22;14.68;;;6.45;;
31594;SDS011;18200;48.726;8.892;2024-01-15T18:47:23;15.48;;;8.60;;
31594;SDS011;18200;48.726;8.892;2024-01-15T18:51:24;18.02;;;6.00;;
31594;SDS011;18200;48.726;8.892;2024-01-15T18:55:24;14.30;;;5.82;;
31594;SDS011;18200;48.726;8.892;2024-01-15T18:59:24;12.82;;;5.72;;
31594;SDS011;18200;48.726;8.892;2024-01-15T19:03:25;13.85;;;5.10;;
31594;SDS011;18200;48.726;8.892;2024-01-15T19:07:25;16.55;;;5.55;;
31594;SDS011;18200;48.726;8.892;2024-01-15T19:11:26;16.48;;;6.60;;
31594;SDS011;18200;48.726;8.892;2024-01-15T19:15:27;14.45;;;6.43;;
31594;SDS011;18200;48.726;8.892;2024-01-15T19:19:52;14.65;;;7.18;;
31594;SDS011;18200;48.726;8.892;2024-01-15T19:24:38;13.93;;;6.05;;
31594;SDS011;18200;48.726;8.892;2024-01-15T19:29:24;14.30;;;6.15;;
31594;SDS011;18200;48.726;8.892;2024-01-15T19:33:55;12.38;;;5.38;;
31594;SDS011;18200;48.726;8.892;2024-01-15T19:37:56;14.23;;;6.57;;
31594;SDS011;18200;48.726;8.892;2024-01-15T19:41:56;19.90;;;8.82;;
31594;SDS011;18200;48.726;8.892;2024-01-15T19:45:57;15.40;;;5.63;;
31594;SDS011;18200;48.726;8.892;2024-01-15T19:49:58;10.57;;;5.07;;
31594;SDS011;18200;48.726;8.892;2024-01-15T19:53:58;15.95;;;6.18;;
31594;SDS011;18200;48.726;8.892;2024-01-15T19:57:58;14.98;;;6.50;;
31594;SDS011;18200;48.726;8.892;2024-01-15T20:01:59;14.25;;;6.40;;
31594;SDS011;18200;48.726;8.892;2024-01-15T20:05:59;19.40;;;8.48;;
31594;SDS011;18200;48.726;8.892;2024-01-15T20:10:00;14.43;;;6.50;;
31594;SDS011;18200;48.726;8.892;2024-01-15T20:14:00;9.73;;;4.65;;
31594;SDS011;18200;48.726;8.892;2024-01-15T20:18:00;15.23;;;5.30;;
31594;SDS011;18200;48.726;8.892;2024-01-15T20:22:02;14.90;;;6.40;;
31594;SDS011;18200;48.726;8.892;2024-01-15T20:26:03;16.52;;;5.80;;
31594;SDS011;18200;48.726;8.892;2024-01-15T20:30:05;11.93;;;4.97;;
31594;SDS011;18200;48.726;8.892;2024-01-15T20:34:06;12.43;;;5.03;;
31594;SDS011;18200;48.726;8.892;2024-01-15T20:38:06;17.15;;;6.60;;
31594;SDS011;18200;48.726;8.892;2024-01-15T20:42:07;15.90;;;6.28;;
31594;SDS011;18200;48.726;8.892;2024-01-15T20:46:07;16.13;;;7.15;;
31594;SDS011;18200;48.726;8.892;2024-01-15T20:50:08;19.73;;;7.80;;
31594;SDS011;18200;48.726;8.892;2024-01-15T20:54:08;17.80;;;5.93;;
31594;SDS011;18200;48.726;8.892;2024-01-15T20:58:09;12.75;;;5.63;;
31594;SDS011;18200;48.726;8.892;2024-01-15T21:02:09;10.43;;;4.78;;
31594;SDS011;18200;48.726;8.892;2024-01-15T21:06:10;19.85;;;8.52;;
31594;SDS011;18200;48.726;8.892;2024-01-15T21:10:10;12.63;;;4.75;;
31594;SDS011;18200;48.726;8.892;2024-01-15T21:14:11;13.10;;;5.20;;
31594;SDS011;18200;48.726;8.892;2024-01-15T21:18:18;12.35;;;5.40;;
31594;SDS011;18200;48.726;8.892;2024-01-15T21:22:18;14.30;;;5.88;;
31594;SDS011;18200;48.726;8.892;2024-01-15T21:26:19;12.30;;;5.00;;
31594;SDS011;18200;48.726;8.892;2024-01-15T21:30:19;12.98;;;5.25;;
31594;SDS011;18200;48.726;8.892;2024-01-15T21:34:21;11.88;;;5.05;;
31594;SDS011;18200;48.726;8.892;2024-01-15T21:38:22;14.05;;;5.38;;
31594;SDS011;18200;48.726;8.892;2024-01-15T21:42:22;14.85;;;5.57;;
31594;SDS011;18200;48.726;8.892;2024-01-15T21:46:23;13.38;;;5.95;;
31594;SDS011;18200;48.726;8.892;2024-01-15T21:50:24;12.65;;;7.22;;
31594;SDS011;18200;48.726;8.892;2024-01-15T21:54:24;13.43;;;5.20;;
31594;SDS011;18200;48.726;8.892;2024-01-15T21:58:25;13.60;;;4.97;;
31594;SDS011;18200;48.726;8.892;2024-01-15T22:02:25;12.48;;;5.72;;
31594;SDS011;18200;48.726;8.892;2024-01-15T22:06:27;13.57;;;6.07;;
31594;SDS011;18200;48.726;8.892;2024-01-15T22:10:27;13.88;;;5.78;;
31594;SDS011;18200;48.726;8.892;2024-01-15T22:14:27;12.25;;;5.10;;
31594;SDS011;18200;48.726;8.892;2024-01-15T22:18:28;13.00;;;5.15;;
31594;SDS011;18200;48.726;8.892;2024-01-15T22:22:28;13.32;;;6.65;;
31594;SDS011;18200;48.726;8.892;2024-01-15T22:26:29;10.07;;;4.35;;
31594;SDS011;18200;48.726;8.892;2024-01-15T22:30:29;11.45;;;5.32;;
31594;SDS011;18200;48.726;8.892;2024-01-15T22:34:30;10.95;;;4.88;;
31594;SDS011;18200;48.726;8.892;2024-01-15T22:38:30;15.43;;;5.53;;
31594;SDS011;18200;48.726;8.892;2024-01-15T22:42:31;16.17;;;6.25;;
31594;SDS011;18200;48.726;8.892;2024-01-15T22:46:31;20.35;;;8.25;;
31594;SDS011;18200;48.726;8.892;2024-01-15T22:50:31;11.45;;;4.80;;
31594;SDS011;18200;48.726;8.892;2024-01-15T22:54:32;17.75;;;5.57;;
31594;SDS011;18200;48.726;8.892;2024-01-15T22:58:33;12.35;;;5.18;;
31594;SDS011;18200;48.726;8.892;2024-01-15T23:02:33;18.30;;;10.25;;
31594;SDS011;18200;48.726;8.892;2024-01-15T23:06:33;22.75;;;15.73;;
31594;SDS011;18200;48.726;8.892;2024-01-15T23:10:34;16.13;;;6.78;;
31594;SDS011;18200;48.726;8.892;2024-01-15T23:14:34;10.25;;;5.35;;
31594;SDS011;18200;48.726;8.892;2024-01-15T23:18:35;10.32;;;5.70;;
31594;SDS011;18200;48.726;8.892;2024-01-15T23:22:35;13.00;;;7.07;;
31594;SDS011;18200;48.726;8.892;2024-01-15T23:26:35;21.73;;;9.88;;
31594;SDS011;18200;48.726;8.892;2024-01-15T23:30:36;12.30;;;5.38;;
31594;SDS011;18200;48.726;8.892;2024-01-15T23:34:36;13.10;;;5.10;;
31594;SDS011;18200;48.726;8.892;2024-01-15T23:38:37;12.68;;;5.65;;
31594;SDS011;18200;48.726;8.892;2024-01-15T23:42:38;12.50;;;4.82;;
31594;SDS011;18200;48.726;8.892;2024-01-15T23:46:39;12.82;;;5.47;;
31594;SDS011;18200;48.726;8.892;2024-01-15T23:50:39;13.15;;;5.25;;
31594;SDS011;18200;48.726;8.892;2024-01-15T23:54:40;11.35;;;5.75;;
31594;SDS011;18200;48.726;8.892;2024-01-15T23:58:41;11.30;;;6.10;;
